createdAt,value
2022-12-14T00:01:48.732Z,10.33
2022-12-14T00:04:15.839Z,11.77
2022-12-14T00:06:42.529Z,10.53
2022-12-14T00:09:09.397Z,9.10
2022-12-14T00:11:36.092Z,9.80
2022-12-14T00:14:03.571Z,8.53
2022-12-14T00:16:31.619Z,8.97
2022-12-14T00:18:59.027Z,9.40
2022-12-14T00:21:26.353Z,7.83
2022-12-14T00:23:53.454Z,9.80
2022-12-14T00:26:37.974Z,9.37
2022-12-14T00:29:04.680Z,10.43
2022-12-14T00:31:32.282Z,9.60
2022-12-14T00:33:59.337Z,9.13
2022-12-14T00:36:25.994Z,10.00
2022-12-14T00:38:52.647Z,9.30
2022-12-14T00:41:19.393Z,9.97
2022-12-14T00:43:49.343Z,9.83
2022-12-14T00:46:17.028Z,8.03
2022-12-14T00:48:43.896Z,9.33
2022-12-14T00:51:10.680Z,10.53
2022-12-14T00:53:37.306Z,7.93
2022-12-14T00:56:07.879Z,8.60
2022-12-14T00:58:34.739Z,9.93
2022-12-14T01:01:02.412Z,9.10
2022-12-14T01:03:29.633Z,8.50
2022-12-14T01:05:56.574Z,9.17
2022-12-14T01:08:23.532Z,8.53
2022-12-14T01:10:50.555Z,9.60
2022-12-14T01:13:17.339Z,10.53
2022-12-14T01:15:43.976Z,9.53
2022-12-14T01:18:10.673Z,7.43
2022-12-14T01:20:37.312Z,8.33
2022-12-14T01:23:04.088Z,9.87
2022-12-14T01:25:30.749Z,9.37
2022-12-14T01:27:57.350Z,9.23
2022-12-14T01:30:23.990Z,8.17
2022-12-14T01:32:50.627Z,9.10
2022-12-14T01:35:17.417Z,10.10
2022-12-14T01:37:44.153Z,9.97
2022-12-14T01:40:10.911Z,9.23
2022-12-14T01:42:37.585Z,8.83
2022-12-14T01:45:05.646Z,8.90
2022-12-14T01:47:42.837Z,7.63
2022-12-14T01:50:18.642Z,9.87
2022-12-14T01:52:46.979Z,9.43
2022-12-14T01:55:15.916Z,9.37
2022-12-14T01:57:46.328Z,8.93
2022-12-14T02:00:17.025Z,10.33
2022-12-14T02:02:53.378Z,9.67
2022-12-14T02:05:21.291Z,8.83
2022-12-14T02:07:48.965Z,9.27
2022-12-14T02:10:16.096Z,9.23
2022-12-14T02:12:45.457Z,8.27
2022-12-14T02:15:14.160Z,9.33
2022-12-14T02:17:42.952Z,8.67
2022-12-14T02:20:10.252Z,10.37
2022-12-14T02:22:49.223Z,9.47
2022-12-14T02:25:39.389Z,10.00
2022-12-14T02:28:17.775Z,9.10
2022-12-14T02:30:47.439Z,10.50
2022-12-14T02:33:28.239Z,9.90
2022-12-14T02:35:55.515Z,10.47
2022-12-14T02:38:40.703Z,8.07
2022-12-14T02:41:46.009Z,8.93
2022-12-14T02:44:31.730Z,9.90
2022-12-14T02:47:03.911Z,9.97
2022-12-14T02:49:49.287Z,7.93
2022-12-14T02:52:16.586Z,8.87
2022-12-14T02:54:57.976Z,8.27
2022-12-14T02:57:29.876Z,9.83
2022-12-14T02:59:59.393Z,9.63
2022-12-14T03:02:27.227Z,10.17
2022-12-14T03:04:54.102Z,8.97
2022-12-14T03:07:24.079Z,9.63
2022-12-14T03:09:52.088Z,8.97
2022-12-14T03:12:20.681Z,9.93
2022-12-14T03:14:50.614Z,9.70
2022-12-14T03:17:19.888Z,9.87
2022-12-14T03:19:50.568Z,10.40
2022-12-14T03:22:20.861Z,10.00
2022-12-14T03:24:49.698Z,9.97
2022-12-14T03:27:29.467Z,9.57
2022-12-14T03:30:07.878Z,7.30
2022-12-14T03:32:37.755Z,9.83
2022-12-14T03:35:10.843Z,9.00
2022-12-14T03:37:56.580Z,9.53
2022-12-14T03:40:27.221Z,10.73
2022-12-14T03:43:00.676Z,9.90
2022-12-14T03:45:30.453Z,9.80
2022-12-14T03:48:00.219Z,9.97
2022-12-14T03:50:35.979Z,9.10
2022-12-14T03:53:15.927Z,9.20
2022-12-14T03:55:51.929Z,9.87
2022-12-14T03:58:24.592Z,10.13
2022-12-14T04:01:09.836Z,9.87
2022-12-14T04:03:42.717Z,9.83
2022-12-14T04:06:14.595Z,9.03
2022-12-14T04:08:48.820Z,8.70
2022-12-14T04:11:35.119Z,10.03
2022-12-14T04:14:34.412Z,8.93
2022-12-14T04:17:21.770Z,8.33
2022-12-14T04:19:59.783Z,8.73
2022-12-14T04:22:29.014Z,8.57
2022-12-14T04:25:22.223Z,9.07
2022-12-14T04:28:04.147Z,9.30
2022-12-14T04:30:32.676Z,8.80
2022-12-14T04:33:22.304Z,8.83
2022-12-14T04:35:50.253Z,9.03
2022-12-14T04:38:19.353Z,8.90
2022-12-14T04:40:52.128Z,9.67
2022-12-14T04:43:21.673Z,8.67
2022-12-14T04:45:54.305Z,8.73
2022-12-14T04:48:45.305Z,9.97
2022-12-14T04:51:21.234Z,9.53
2022-12-14T04:53:50.788Z,9.73
2022-12-14T04:56:27.243Z,9.93
2022-12-14T04:58:54.249Z,8.83
2022-12-14T05:01:39.727Z,9.77
2022-12-14T05:04:25.548Z,9.90
2022-12-14T05:07:10.985Z,10.00
2022-12-14T05:09:40.361Z,10.20
2022-12-14T05:12:17.210Z,9.27
2022-12-14T05:14:59.746Z,10.00
2022-12-14T05:17:27.330Z,9.93
2022-12-14T05:19:54.512Z,9.13
2022-12-14T05:22:21.301Z,9.47
2022-12-14T05:24:47.900Z,9.93
2022-12-14T05:27:14.516Z,9.63
2022-12-14T05:29:41.127Z,9.53
2022-12-14T05:32:09.017Z,9.57
2022-12-14T05:34:35.715Z,9.50
2022-12-14T05:37:02.423Z,8.63
2022-12-14T05:39:29.170Z,9.57
2022-12-14T05:41:55.864Z,9.57
2022-12-14T05:44:22.637Z,9.23
2022-12-14T05:46:49.292Z,10.00
2022-12-14T05:49:16.452Z,8.70
2022-12-14T05:51:43.091Z,8.90
2022-12-14T05:54:10.159Z,9.50
2022-12-14T05:56:36.879Z,9.40
2022-12-14T05:59:03.527Z,8.80
2022-12-14T06:01:30.295Z,10.47
2022-12-14T06:03:57.080Z,11.27
2022-12-14T06:06:23.782Z,9.87
2022-12-14T06:08:50.667Z,8.97
2022-12-14T06:11:18.818Z,9.03
2022-12-14T06:13:45.741Z,10.30
2022-12-14T06:16:12.439Z,8.60
2022-12-14T06:18:42.975Z,9.60
2022-12-14T06:21:09.768Z,9.40
2022-12-14T06:23:36.398Z,9.33
2022-12-14T06:26:03.063Z,9.40
2022-12-14T06:28:29.797Z,9.10
2022-12-14T06:30:56.477Z,9.37
2022-12-14T06:33:23.132Z,10.10
2022-12-14T06:35:50.122Z,10.40
2022-12-14T06:38:17.274Z,10.03
2022-12-14T06:40:43.874Z,9.30
2022-12-14T06:43:10.579Z,8.70
2022-12-14T06:45:37.166Z,9.10
2022-12-14T06:48:03.748Z,9.63
2022-12-14T06:50:30.459Z,9.63
2022-12-14T06:52:57.105Z,9.90
2022-12-14T06:55:26.625Z,10.43
2022-12-14T06:57:53.851Z,11.50
2022-12-14T07:00:21.224Z,9.83
2022-12-14T07:02:48.417Z,9.73
2022-12-14T07:05:15.599Z,10.30
2022-12-14T07:07:42.935Z,9.50
2022-12-14T07:10:10.142Z,9.17
2022-12-14T07:12:37.050Z,9.50
2022-12-14T07:15:03.997Z,8.77
2022-12-14T07:17:30.802Z,9.33
2022-12-14T07:19:57.743Z,10.03
2022-12-14T07:22:24.427Z,9.73
2022-12-14T07:24:51.060Z,10.17
2022-12-14T07:27:18.701Z,9.77
2022-12-14T07:29:45.457Z,10.07
2022-12-14T07:32:12.107Z,9.40
2022-12-14T07:34:38.739Z,9.43
2022-12-14T07:37:05.377Z,8.97
2022-12-14T07:39:32.093Z,8.90
2022-12-14T07:41:58.770Z,9.27
2022-12-14T07:44:28.419Z,8.67
2022-12-14T07:46:55.117Z,8.63
2022-12-14T07:49:21.880Z,9.37
2022-12-14T07:51:48.582Z,9.17
2022-12-14T07:54:15.254Z,9.33
2022-12-14T07:56:43.051Z,9.43
2022-12-14T07:59:12.635Z,8.73
2022-12-14T08:01:39.423Z,10.37
2022-12-14T08:04:10.936Z,9.63
2022-12-14T08:06:38.371Z,9.73
2022-12-14T08:09:05.667Z,9.03
2022-12-14T08:11:32.313Z,10.03
2022-12-14T08:14:11.534Z,9.40
2022-12-14T08:16:38.188Z,9.97
2022-12-14T08:19:04.842Z,9.93
2022-12-14T08:21:31.520Z,9.40
2022-12-14T08:23:58.264Z,10.00
2022-12-14T08:26:31.632Z,9.73
2022-12-14T08:29:01.873Z,9.57
2022-12-14T08:31:28.905Z,8.80
2022-12-14T08:33:55.979Z,9.53
2022-12-14T08:36:24.562Z,9.90
2022-12-14T08:39:01.688Z,10.33
2022-12-14T08:41:28.599Z,10.10
2022-12-14T08:43:56.400Z,8.73
2022-12-14T08:46:23.739Z,9.17
2022-12-14T08:48:52.401Z,9.27
2022-12-14T08:51:19.577Z,8.03
2022-12-14T08:53:47.936Z,9.60
2022-12-14T08:56:18.987Z,9.13
2022-12-14T08:58:45.785Z,9.07
2022-12-14T09:01:14.012Z,8.43
2022-12-14T09:03:41.744Z,9.37
2022-12-14T09:06:09.823Z,8.13
2022-12-14T09:08:36.536Z,8.53
2022-12-14T09:11:04.686Z,8.67
2022-12-14T09:13:32.045Z,8.90
2022-12-14T09:16:02.816Z,8.67
2022-12-14T09:18:30.360Z,8.50
2022-12-14T09:20:57.398Z,8.83
2022-12-14T09:23:25.655Z,9.60
2022-12-14T09:26:08.722Z,8.60
2022-12-14T09:28:36.712Z,9.40
2022-12-14T09:31:05.705Z,8.53
2022-12-14T09:33:33.361Z,10.03
2022-12-14T09:36:01.851Z,9.40
2022-12-14T09:38:30.319Z,9.40
2022-12-14T09:40:58.035Z,9.10
2022-12-14T09:43:46.563Z,8.50
2022-12-14T09:46:13.273Z,9.10
2022-12-14T09:48:42.104Z,8.97
2022-12-14T09:51:13.292Z,8.90
2022-12-14T09:53:42.249Z,9.33
2022-12-14T09:56:11.226Z,8.93
2022-12-14T09:58:38.432Z,9.80
2022-12-14T10:01:25.673Z,9.47
2022-12-14T10:03:53.100Z,9.17
2022-12-14T10:06:28.991Z,9.77
2022-12-14T10:09:13.745Z,9.00
2022-12-14T10:11:59.217Z,8.90
2022-12-14T10:14:44.584Z,9.67
2022-12-14T10:17:26.705Z,9.90
2022-12-14T10:19:54.924Z,9.17
2022-12-14T10:22:25.817Z,9.97
2022-12-14T10:24:56.583Z,10.13
2022-12-14T10:27:24.869Z,9.47
2022-12-14T10:30:02.450Z,9.33
2022-12-14T10:32:33.172Z,9.87
2022-12-14T10:35:01.674Z,9.63
2022-12-14T10:37:39.731Z,9.90
2022-12-14T10:40:13.728Z,9.33
2022-12-14T10:43:01.345Z,9.37
2022-12-14T10:45:41.487Z,10.10
2022-12-14T10:48:19.343Z,9.57
2022-12-14T10:50:58.323Z,9.90
2022-12-14T10:53:33.435Z,9.70
2022-12-14T10:56:05.013Z,10.00
2022-12-14T10:58:32.702Z,10.60
2022-12-14T11:00:59.560Z,9.67
2022-12-14T11:03:26.502Z,9.80
2022-12-14T11:06:11.025Z,9.80
2022-12-14T11:08:43.881Z,10.00
2022-12-14T11:11:18.836Z,9.40
2022-12-14T11:14:06.191Z,9.30
2022-12-14T11:16:37.194Z,9.50
2022-12-14T11:19:05.910Z,9.50
2022-12-14T11:21:34.217Z,10.47
2022-12-14T11:24:01.413Z,10.23
2022-12-14T11:26:30.046Z,11.23
2022-12-14T11:28:57.853Z,10.13
2022-12-14T11:31:30.810Z,9.93
2022-12-14T11:33:58.325Z,10.13
2022-12-14T11:36:26.823Z,11.40
2022-12-14T11:38:56.663Z,10.47
2022-12-14T11:41:23.592Z,10.77
2022-12-14T11:44:09.537Z,11.20
2022-12-14T11:46:44.807Z,11.30
2022-12-14T11:49:25.836Z,10.63
2022-12-14T11:52:01.849Z,10.03
2022-12-14T11:54:29.149Z,9.03
2022-12-14T11:57:07.638Z,9.03
2022-12-14T11:59:49.919Z,9.30
2022-12-14T12:02:29.057Z,9.60
2022-12-14T12:04:57.927Z,8.77
2022-12-14T12:07:28.889Z,9.23
2022-12-14T12:09:56.339Z,8.83
2022-12-14T12:12:23.558Z,8.03
2022-12-14T12:14:55.523Z,8.87
2022-12-14T12:17:37.684Z,8.40
2022-12-14T12:20:12.610Z,9.33
2022-12-14T12:22:42.852Z,8.67
2022-12-14T12:25:33.613Z,9.40
2022-12-14T12:28:07.579Z,9.40
2022-12-14T12:30:36.114Z,8.23
2022-12-14T12:33:09.108Z,8.40
2022-12-14T12:35:39.681Z,8.33
2022-12-14T12:38:16.946Z,9.47
2022-12-14T12:41:06.893Z,8.17
2022-12-14T12:44:00.113Z,8.00
2022-12-14T12:46:32.924Z,8.37
2022-12-14T12:48:59.720Z,8.50
2022-12-14T12:51:28.535Z,8.40
2022-12-14T12:53:57.454Z,7.90
2022-12-14T12:56:29.347Z,7.40
2022-12-14T12:58:56.583Z,8.03
2022-12-14T13:01:26.399Z,7.93
2022-12-14T13:03:55.381Z,7.50
2022-12-14T13:06:25.003Z,7.23
2022-12-14T13:08:56.223Z,8.17
2022-12-14T13:11:26.432Z,8.90
2022-12-14T13:13:56.624Z,8.80
2022-12-14T13:16:29.695Z,10.30
2022-12-14T13:21:49.760Z,9.33
2022-12-14T13:24:19.070Z,9.20
2022-12-14T13:27:00.646Z,8.60
2022-12-14T13:29:40.104Z,9.10
2022-12-14T13:32:21.793Z,9.37
2022-12-14T13:34:48.421Z,9.47
2022-12-14T13:37:30.415Z,9.60
2022-12-14T13:39:57.042Z,8.93
2022-12-14T13:42:23.612Z,8.87
2022-12-14T13:45:00.678Z,7.93
2022-12-14T13:47:39.554Z,7.63
2022-12-14T13:52:56.299Z,8.97
2022-12-14T13:55:28.822Z,10.07
2022-12-14T13:58:06.474Z,7.87
2022-12-14T14:00:45.723Z,7.90
2022-12-14T14:03:31.438Z,8.53
2022-12-14T14:06:17.315Z,7.83
2022-12-14T14:08:47.567Z,8.40
2022-12-14T14:11:39.980Z,9.63
2022-12-14T14:14:20.810Z,8.60
2022-12-14T14:16:50.576Z,10.33
2022-12-14T14:19:24.526Z,10.00
2022-12-14T14:24:58.282Z,9.47
2022-12-14T14:27:27.331Z,8.33
2022-12-14T14:29:54.785Z,8.70
2022-12-14T14:32:36.123Z,10.03
2022-12-14T14:35:06.983Z,9.40
2022-12-14T14:37:36.076Z,12.67
2022-12-14T14:40:29.222Z,20.57
2022-12-14T14:43:06.584Z,9.87
2022-12-14T14:45:33.235Z,9.37
2022-12-14T14:48:02.214Z,10.00
2022-12-14T14:50:35.222Z,10.80
2022-12-14T14:53:12.323Z,12.87
2022-12-14T14:55:55.999Z,11.70
2022-12-14T14:58:27.065Z,11.20
2022-12-14T15:01:06.364Z,11.13
2022-12-14T15:03:39.274Z,11.23
2022-12-14T15:06:11.690Z,11.83
2022-12-14T15:08:39.710Z,12.40
2022-12-14T15:11:13.528Z,13.67
2022-12-14T15:13:45.281Z,15.13
2022-12-14T15:16:27.810Z,14.40
2022-12-14T15:18:54.485Z,13.60
2022-12-14T15:21:21.103Z,13.67
2022-12-14T15:23:55.586Z,13.07
2022-12-14T15:26:26.933Z,12.57
2022-12-14T15:28:54.752Z,11.87
2022-12-14T15:31:32.310Z,13.73
2022-12-14T15:34:00.262Z,12.80
2022-12-14T15:36:29.346Z,12.47
2022-12-14T15:38:56.554Z,13.40
2022-12-14T15:41:24.858Z,13.77
2022-12-14T15:43:55.105Z,13.87
2022-12-14T15:46:30.988Z,13.70
2022-12-14T15:48:58.813Z,14.77
2022-12-14T15:51:28.839Z,18.03
2022-12-14T15:53:55.561Z,15.37
2022-12-14T15:56:22.191Z,15.80
2022-12-14T15:58:49.069Z,18.43
2022-12-14T16:01:21.850Z,15.67
2022-12-14T16:03:56.666Z,17.90
2022-12-14T16:06:24.420Z,16.97
2022-12-14T16:08:55.117Z,15.73
2022-12-14T16:11:24.645Z,16.13
2022-12-14T16:13:51.561Z,15.30
2022-12-14T16:16:18.454Z,15.17
2022-12-14T16:18:50.652Z,14.60
2022-12-14T16:21:26.725Z,16.00
2022-12-14T16:23:53.494Z,14.63
2022-12-14T16:26:33.323Z,16.50
2022-12-14T16:29:07.522Z,15.80
2022-12-14T16:31:34.451Z,15.53
2022-12-14T16:34:15.218Z,15.67
2022-12-14T16:36:42.148Z,16.27
2022-12-14T16:39:23.162Z,17.03
2022-12-14T16:41:55.342Z,16.33
2022-12-14T16:44:24.285Z,17.30
2022-12-14T16:47:19.599Z,17.10
2022-12-14T16:49:56.639Z,18.27
2022-12-14T16:52:26.358Z,17.83
2022-12-14T16:55:06.170Z,18.50
2022-12-14T16:57:33.056Z,19.27
2022-12-14T17:00:00.998Z,18.73
2022-12-14T17:02:34.459Z,19.07
2022-12-14T17:05:04.887Z,18.10
2022-12-14T17:07:33.081Z,16.50
2022-12-14T17:09:59.917Z,16.60
2022-12-14T17:12:26.914Z,18.27
2022-12-14T17:14:54.093Z,17.43
2022-12-14T17:17:31.099Z,18.17
2022-12-14T17:20:00.537Z,17.53
2022-12-14T17:22:29.429Z,17.10
2022-12-14T17:24:56.053Z,17.73
2022-12-14T17:27:23.035Z,16.57
2022-12-14T17:29:49.757Z,19.73
2022-12-14T17:32:16.958Z,21.20
2022-12-14T17:34:45.554Z,20.70
2022-12-14T17:37:16.122Z,19.93
2022-12-14T17:39:42.762Z,19.53
2022-12-14T17:42:11.131Z,19.43
2022-12-14T17:44:38.966Z,18.53
2022-12-14T17:47:05.709Z,18.10
2022-12-14T17:49:35.401Z,18.60
2022-12-14T17:52:04.467Z,19.13
2022-12-14T17:54:31.670Z,21.57
2022-12-14T17:56:58.449Z,22.73
2022-12-14T17:59:25.512Z,21.40
2022-12-14T18:01:52.262Z,20.33
2022-12-14T18:04:19.033Z,21.10
2022-12-14T18:06:45.666Z,22.43
2022-12-14T18:09:12.557Z,21.43
2022-12-14T18:11:54.274Z,21.87
2022-12-14T18:14:26.092Z,20.63
2022-12-14T18:16:53.850Z,20.37
2022-12-14T18:19:20.451Z,20.03
2022-12-14T18:21:47.052Z,21.83
2022-12-14T18:24:18.187Z,20.67
2022-12-14T18:26:48.090Z,19.77
2022-12-14T18:29:15.916Z,20.33
2022-12-14T18:31:43.208Z,20.73
2022-12-14T18:34:11.181Z,20.93
2022-12-14T18:36:37.942Z,19.73
2022-12-14T18:39:04.658Z,20.50
2022-12-14T18:41:31.311Z,20.87
2022-12-14T18:43:58.324Z,21.30
2022-12-14T18:46:25.163Z,21.53
2022-12-14T18:48:51.899Z,23.00
2022-12-14T18:51:23.466Z,22.27
2022-12-14T18:53:50.663Z,23.27
2022-12-14T18:56:17.706Z,24.50
2022-12-14T18:58:45.399Z,24.30
2022-12-14T19:01:16.620Z,23.50
2022-12-14T19:03:43.765Z,25.57
2022-12-14T19:08:58.690Z,22.83
2022-12-14T19:11:30.605Z,21.30
2022-12-14T19:13:57.347Z,22.10
2022-12-14T19:16:24.301Z,21.97
2022-12-14T19:18:51.289Z,21.37
2022-12-14T19:21:18.579Z,23.07
2022-12-14T19:23:45.557Z,23.87
2022-12-14T19:26:12.797Z,22.80
2022-12-14T19:28:39.447Z,25.50
2022-12-14T19:31:08.834Z,24.17
2022-12-14T19:33:35.839Z,23.73
2022-12-14T19:36:05.913Z,22.73
2022-12-14T19:38:34.182Z,23.87
2022-12-14T19:41:05.681Z,24.20
2022-12-14T19:43:32.701Z,22.90
2022-12-14T19:45:59.817Z,23.97
2022-12-14T19:48:26.646Z,23.87
2022-12-14T19:50:53.247Z,23.43
2022-12-14T19:53:23.726Z,21.93
2022-12-14T19:55:52.748Z,23.47
2022-12-14T19:58:21.973Z,22.70
2022-12-14T20:00:49.245Z,24.03
2022-12-14T20:03:16.380Z,23.37
2022-12-14T20:05:55.006Z,22.23
2022-12-14T20:08:21.960Z,23.40
2022-12-14T20:10:48.846Z,23.60
2022-12-14T20:13:15.448Z,22.63
2022-12-14T20:15:47.523Z,24.77
2022-12-14T20:18:14.481Z,23.07
2022-12-14T20:20:41.149Z,22.87
2022-12-14T20:23:07.819Z,22.60
2022-12-14T20:25:34.515Z,22.00
2022-12-14T20:28:01.123Z,20.73
2022-12-14T20:30:28.010Z,19.87
2022-12-14T20:32:54.652Z,19.40
2022-12-14T20:35:21.372Z,19.53
2022-12-14T20:37:48.026Z,17.97
2022-12-14T20:40:14.817Z,19.97
2022-12-14T20:42:41.564Z,19.37
2022-12-14T20:45:08.744Z,19.20
2022-12-14T20:47:35.528Z,18.87
2022-12-14T20:50:02.363Z,21.97
2022-12-14T20:52:29.061Z,20.10
2022-12-14T20:54:55.724Z,20.60
2022-12-14T20:57:22.584Z,20.13
2022-12-14T20:59:49.708Z,19.93
2022-12-14T21:02:17.589Z,20.70
2022-12-14T21:04:44.410Z,21.40
2022-12-14T21:07:11.303Z,20.87
2022-12-14T21:09:38.197Z,20.80
2022-12-14T21:12:25.605Z,21.07
2022-12-14T21:14:55.054Z,21.73
2022-12-14T21:17:23.345Z,22.00
2022-12-14T21:19:50.464Z,21.90
2022-12-14T21:22:18.287Z,21.93
2022-12-14T21:25:03.779Z,22.07
2022-12-14T21:27:31.980Z,22.43
2022-12-14T21:30:01.219Z,21.07
2022-12-14T21:32:31.780Z,21.83
2022-12-14T21:34:58.420Z,21.43
2022-12-14T21:37:25.466Z,24.50
2022-12-14T21:39:54.926Z,24.53
2022-12-14T21:42:24.764Z,21.80
2022-12-14T21:44:52.215Z,22.43
2022-12-14T21:47:24.774Z,22.47
2022-12-14T21:49:53.014Z,21.73
2022-12-14T21:52:21.107Z,23.67
2022-12-14T21:54:48.097Z,22.97
2022-12-14T21:57:33.847Z,22.93
2022-12-14T22:00:00.581Z,22.63
2022-12-14T22:02:27.807Z,23.23
2022-12-14T22:05:01.096Z,22.67
2022-12-14T22:07:31.892Z,24.70
2022-12-14T22:09:58.781Z,23.10
2022-12-14T22:12:25.721Z,23.43
2022-12-14T22:14:52.453Z,23.27
2022-12-14T22:17:19.461Z,24.03
2022-12-14T22:19:46.708Z,23.03
2022-12-14T22:22:16.898Z,23.83
2022-12-14T22:24:43.953Z,25.53
2022-12-14T22:27:13.573Z,24.60
2022-12-14T22:29:40.490Z,23.47
2022-12-14T22:32:07.641Z,23.90
2022-12-14T22:34:34.430Z,22.77
2022-12-14T22:37:00.989Z,23.77
2022-12-14T22:39:27.638Z,23.03
2022-12-14T22:41:54.331Z,23.30
2022-12-14T22:44:21.008Z,22.73
2022-12-14T22:46:47.585Z,23.53
2022-12-14T22:49:18.382Z,22.37
2022-12-14T22:51:45.543Z,22.08
2022-12-14T22:54:22.569Z,24.63
2022-12-14T22:56:52.891Z,21.90
2022-12-14T22:59:23.103Z,22.53
2022-12-14T23:01:50.695Z,21.57
2022-12-14T23:04:17.578Z,21.33
2022-12-14T23:06:44.986Z,21.73
2022-12-14T23:09:30.592Z,21.40
2022-12-14T23:12:21.237Z,22.77
2022-12-14T23:15:07.217Z,22.60
2022-12-14T23:17:52.574Z,23.80
2022-12-14T23:20:38.055Z,23.33
2022-12-14T23:23:27.352Z,22.03
2022-12-14T23:26:12.750Z,21.98
2022-12-14T23:28:58.251Z,23.60
2022-12-14T23:31:43.683Z,21.10
2022-12-14T23:34:29.174Z,21.83
2022-12-14T23:37:19.891Z,20.23
2022-12-14T23:40:06.035Z,21.80
2022-12-14T23:42:51.228Z,21.10
2022-12-14T23:45:36.712Z,21.40
2022-12-14T23:48:21.958Z,20.37
2022-12-14T23:51:07.364Z,20.57
2022-12-14T23:53:52.957Z,22.20
2022-12-14T23:56:38.347Z,21.37
2022-12-14T23:59:27.982Z,21.60
